createdAt,value
2022-11-22T00:01:17.909Z,13.12
2022-11-22T00:03:48.159Z,13.15
2022-11-22T00:06:16.399Z,13.16
2022-11-22T00:08:44.652Z,13.20
2022-11-22T00:11:14.015Z,13.19
2022-11-22T00:13:41.916Z,13.19
2022-11-22T00:16:09.951Z,13.17
2022-11-22T00:18:37.962Z,13.18
2022-11-22T00:21:08.518Z,13.22
2022-11-22T00:23:36.585Z,13.15
2022-11-22T00:26:04.684Z,12.98
2022-11-22T00:28:33.986Z,13.14
2022-11-22T00:31:02.073Z,13.41
2022-11-22T00:33:29.978Z,13.40
2022-11-22T00:35:58.041Z,13.40
2022-11-22T00:38:26.409Z,13.44
2022-11-22T00:40:54.393Z,13.35
2022-11-22T00:43:22.434Z,13.24
2022-11-22T00:45:51.939Z,13.26
2022-11-22T00:48:19.896Z,13.10
2022-11-22T00:50:49.965Z,13.03
2022-11-22T00:53:17.982Z,13.06
2022-11-22T00:55:48.821Z,12.88
2022-11-22T00:58:18.113Z,13.01
2022-11-22T01:00:55.029Z,12.96
2022-11-22T01:03:29.775Z,13.05
2022-11-22T01:06:01.378Z,13.00
2022-11-22T01:08:29.387Z,13.01
2022-11-22T01:10:59.029Z,12.91
2022-11-22T01:13:27.246Z,13.00
2022-11-22T01:15:57.935Z,13.08
2022-11-22T01:18:28.715Z,13.20
2022-11-22T01:20:57.289Z,13.32
2022-11-22T01:23:26.161Z,13.29
2022-11-22T01:25:54.852Z,13.51
2022-11-22T01:28:24.351Z,13.37
2022-11-22T01:30:54.660Z,13.24
2022-11-22T01:33:29.269Z,13.36
2022-11-22T01:36:01.175Z,13.39
2022-11-22T01:38:31.924Z,13.35
2022-11-22T01:41:00.390Z,13.19
2022-11-22T01:43:30.176Z,13.20
2022-11-22T01:45:59.524Z,13.19
2022-11-22T01:48:46.622Z,13.10
2022-11-22T01:51:22.124Z,13.11
2022-11-22T01:53:53.910Z,13.01
2022-11-22T01:56:23.722Z,12.95
2022-11-22T01:58:55.641Z,12.83
2022-11-22T02:01:29.799Z,12.87
2022-11-22T02:03:58.584Z,13.12
2022-11-22T02:06:38.631Z,13.25
2022-11-22T02:09:11.644Z,13.36
2022-11-22T02:11:45.082Z,13.52
2022-11-22T02:14:15.061Z,13.43
2022-11-22T02:17:07.031Z,13.59
2022-11-22T02:19:41.971Z,13.77
2022-11-22T02:22:19.799Z,13.71
2022-11-22T02:24:53.582Z,13.86
2022-11-22T02:27:25.558Z,13.76
2022-11-22T02:29:57.746Z,13.74
2022-11-22T02:32:26.085Z,13.75
2022-11-22T02:34:54.056Z,13.81
2022-11-22T02:37:25.942Z,13.87
2022-11-22T02:39:58.106Z,14.01
2022-11-22T02:42:28.067Z,14.03
2022-11-22T02:44:59.196Z,14.15
2022-11-22T02:47:27.833Z,14.20
2022-11-22T02:50:03.380Z,14.18
2022-11-22T02:52:31.544Z,14.21
2022-11-22T02:55:02.337Z,14.12
2022-11-22T02:57:32.686Z,14.19
2022-11-22T03:00:01.936Z,14.27
2022-11-22T03:02:30.960Z,14.32
2022-11-22T03:04:59.186Z,14.46
2022-11-22T03:07:37.580Z,14.49
2022-11-22T03:10:06.014Z,14.33
2022-11-22T03:12:54.726Z,14.53
2022-11-22T03:15:22.803Z,14.59
2022-11-22T03:17:51.902Z,14.58
2022-11-22T03:20:20.276Z,14.49
2022-11-22T03:22:53.837Z,14.36
2022-11-22T03:25:22.581Z,14.26
2022-11-22T03:27:52.204Z,14.41
2022-11-22T03:30:20.993Z,14.55
2022-11-22T03:32:51.462Z,14.64
2022-11-22T03:35:19.663Z,14.65
2022-11-22T03:37:48.085Z,14.65
2022-11-22T03:40:22.400Z,14.66
2022-11-22T03:42:51.765Z,14.74
2022-11-22T03:45:27.039Z,14.71
2022-11-22T03:47:58.307Z,14.71
2022-11-22T03:50:27.539Z,14.51
2022-11-22T03:53:08.473Z,14.48
2022-11-22T03:55:37.027Z,14.45
2022-11-22T03:58:09.322Z,14.50
2022-11-22T04:00:43.225Z,14.54
2022-11-22T04:03:14.587Z,14.71
2022-11-22T04:05:44.619Z,14.63
2022-11-22T04:08:15.533Z,14.63
2022-11-22T04:10:44.301Z,14.89
2022-11-22T04:13:14.710Z,14.84
2022-11-22T04:15:44.233Z,14.90
2022-11-22T04:18:12.587Z,14.93
2022-11-22T04:24:10.339Z,14.75
2022-11-22T04:26:40.163Z,14.89
2022-11-22T04:29:12.090Z,14.89
2022-11-22T04:31:58.559Z,14.92
2022-11-22T04:34:32.612Z,14.90
2022-11-22T04:37:01.084Z,14.92
2022-11-22T04:39:29.777Z,14.92
2022-11-22T04:42:13.572Z,14.65
2022-11-22T04:44:45.943Z,14.64
2022-11-22T04:47:50.481Z,14.87
2022-11-22T04:50:44.004Z,14.85
2022-11-22T04:53:12.394Z,14.61
2022-11-22T04:55:41.083Z,14.68
2022-11-22T04:58:11.523Z,14.61
2022-11-22T05:00:41.739Z,14.67
2022-11-22T05:03:13.058Z,14.31
2022-11-22T05:05:42.807Z,14.28
2022-11-22T05:08:12.164Z,14.36
2022-11-22T05:10:58.091Z,14.38
2022-11-22T05:13:28.218Z,14.36
2022-11-22T05:16:01.110Z,14.50
2022-11-22T05:18:29.537Z,14.51
2022-11-22T05:20:57.498Z,14.49
2022-11-22T05:23:44.216Z,14.71
2022-11-22T05:26:12.267Z,14.69
2022-11-22T05:28:46.274Z,14.73
2022-11-22T05:31:19.135Z,14.61
2022-11-22T05:33:50.100Z,14.22
2022-11-22T05:36:18.290Z,14.31
2022-11-22T05:38:50.069Z,14.11
2022-11-22T05:41:18.324Z,14.14
2022-11-22T05:43:46.303Z,14.12
2022-11-22T05:46:24.843Z,14.12
2022-11-22T05:48:53.876Z,14.38
2022-11-22T05:51:23.635Z,14.43
2022-11-22T05:53:52.007Z,14.38
2022-11-22T06:02:08.986Z,14.18
2022-11-22T06:04:40.653Z,14.00
2022-11-22T06:07:24.784Z,13.94
2022-11-22T06:09:56.730Z,14.18
2022-11-22T06:12:26.828Z,14.11
2022-11-22T06:14:55.631Z,14.35
2022-11-22T06:17:25.022Z,14.34
2022-11-22T06:19:54.333Z,14.34
2022-11-22T06:22:26.144Z,14.23
2022-11-22T06:24:55.032Z,14.23
2022-11-22T06:27:23.274Z,14.27
2022-11-22T06:29:51.394Z,14.04
2022-11-22T06:32:21.670Z,14.11
2022-11-22T06:35:03.119Z,14.04
2022-11-22T06:37:33.957Z,14.27
2022-11-22T06:40:03.174Z,14.32
2022-11-22T06:42:31.608Z,14.40
2022-11-22T06:45:01.967Z,14.32
2022-11-22T06:47:29.943Z,14.23
2022-11-22T06:50:04.505Z,14.03
2022-11-22T06:52:41.290Z,13.83
2022-11-22T06:55:42.366Z,13.56
2022-11-22T06:58:08.894Z,13.38
2022-11-22T07:00:46.464Z,13.21
2022-11-22T07:03:15.213Z,13.11
2022-11-22T07:06:01.783Z,13.03
2022-11-22T07:08:31.668Z,12.89
2022-11-22T07:11:03.891Z,12.82
2022-11-22T07:13:34.087Z,12.80
2022-11-22T07:16:06.154Z,12.85
2022-11-22T07:18:35.915Z,12.90
2022-11-22T07:21:17.988Z,12.88
2022-11-22T07:23:49.129Z,12.93
2022-11-22T07:26:18.499Z,12.91
2022-11-22T07:28:50.139Z,12.89
2022-11-22T07:31:19.677Z,12.85
2022-11-22T07:33:51.195Z,12.86
2022-11-22T07:36:23.224Z,12.87
2022-11-22T07:38:54.495Z,12.88
2022-11-22T07:41:22.754Z,12.86
2022-11-22T07:43:50.768Z,12.88
2022-11-22T07:46:24.836Z,12.96
2022-11-22T07:48:53.237Z,13.03
2022-11-22T07:51:33.109Z,13.06
2022-11-22T07:54:05.333Z,13.08
2022-11-22T07:56:35.830Z,13.15
2022-11-22T07:59:10.117Z,13.18
2022-11-22T08:01:38.812Z,13.21
2022-11-22T08:04:17.727Z,13.19
2022-11-22T08:06:49.947Z,13.19
2022-11-22T08:09:18.236Z,13.21
2022-11-22T08:11:46.568Z,13.23
2022-11-22T08:14:14.993Z,13.27
2022-11-22T08:16:44.328Z,13.21
2022-11-22T08:19:16.051Z,13.19
2022-11-22T08:21:47.211Z,13.14
2022-11-22T08:24:15.312Z,13.22
2022-11-22T08:26:43.334Z,13.24
2022-11-22T08:29:14.564Z,13.24
2022-11-22T08:31:43.131Z,13.26
2022-11-22T08:34:14.427Z,13.28
2022-11-22T08:36:42.470Z,13.36
2022-11-22T08:39:11.845Z,13.44
2022-11-22T08:41:39.889Z,13.52
2022-11-22T08:44:08.973Z,13.57
2022-11-22T08:46:37.029Z,13.62
2022-11-22T08:49:06.507Z,13.68
2022-11-22T08:51:35.842Z,13.71
2022-11-22T08:54:03.992Z,13.72
2022-11-22T08:56:35.126Z,13.76
2022-11-22T08:59:03.880Z,13.78
2022-11-22T09:01:40.742Z,13.81
2022-11-22T09:04:11.195Z,13.82
2022-11-22T09:09:37.970Z,13.75
2022-11-22T09:12:08.946Z,13.66
2022-11-22T09:14:37.091Z,13.57
2022-11-22T09:17:12.058Z,13.52
2022-11-22T09:19:49.127Z,13.50
2022-11-22T09:22:24.045Z,13.46
2022-11-22T09:24:55.147Z,13.47
2022-11-22T09:27:27.916Z,13.42
2022-11-22T09:29:56.078Z,13.48
2022-11-22T09:32:29.345Z,13.48
2022-11-22T09:35:01.431Z,13.63
2022-11-22T09:37:31.067Z,13.76
2022-11-22T09:40:02.229Z,13.93
2022-11-22T09:42:44.478Z,14.07
2022-11-22T09:45:54.921Z,14.16
2022-11-22T09:48:31.783Z,14.24
2022-11-22T09:51:04.115Z,14.25
2022-11-22T09:53:36.506Z,14.33
2022-11-22T09:56:05.141Z,14.37
2022-11-22T09:58:36.548Z,14.34
2022-11-22T10:01:07.375Z,14.21
2022-11-22T10:03:42.446Z,14.16
2022-11-22T10:06:15.349Z,14.17
2022-11-22T10:08:45.526Z,14.21
2022-11-22T10:11:19.158Z,14.40
2022-11-22T10:13:57.166Z,14.57
2022-11-22T10:16:28.920Z,14.74
2022-11-22T10:19:00.428Z,14.90
2022-11-22T10:21:35.049Z,15.04
2022-11-22T10:24:04.446Z,15.19
2022-11-22T10:26:33.800Z,15.27
2022-11-22T10:29:19.340Z,15.33
2022-11-22T10:31:53.328Z,15.38
2022-11-22T10:34:35.051Z,15.41
2022-11-22T10:37:20.342Z,15.41
2022-11-22T10:44:36.192Z,15.27
2022-11-22T10:47:40.355Z,15.21
2022-11-22T11:02:26.668Z,14.87
2022-11-22T11:11:33.958Z,14.45
2022-11-22T11:14:42.569Z,14.57
2022-11-22T11:17:45.173Z,14.51
2022-11-22T11:21:16.411Z,14.48
2022-11-22T11:26:58.439Z,14.31
2022-11-22T11:29:45.824Z,14.32
2022-11-22T11:32:21.202Z,14.40
2022-11-22T11:35:13.411Z,14.43
2022-11-22T11:37:58.412Z,14.62
2022-11-22T11:51:02.671Z,15.08
2022-11-22T11:54:20.200Z,14.87
2022-11-22T11:58:16.255Z,15.05
2022-11-22T12:11:04.962Z,14.93
2022-11-22T12:18:28.284Z,14.71
2022-11-22T12:22:50.034Z,14.72
2022-11-22T12:30:42.280Z,14.54
2022-11-22T12:54:29.130Z,14.76
2022-11-22T12:57:21.054Z,14.87
2022-11-22T13:05:25.728Z,14.84
2022-11-22T13:30:25.925Z,15.14
2022-11-22T13:33:48.520Z,15.15
2022-11-22T13:37:23.438Z,15.15
2022-11-22T13:44:15.165Z,15.11
2022-11-22T13:47:27.054Z,15.01
2022-11-22T13:50:03.681Z,14.98
2022-11-22T14:01:20.371Z,15.19
2022-11-22T14:04:06.765Z,15.14
2022-11-22T14:06:49.747Z,15.02
2022-11-22T14:09:45.156Z,15.01
2022-11-22T14:13:34.047Z,15.34
2022-11-22T14:17:04.372Z,15.36
2022-11-22T15:09:21.647Z,14.83
2022-11-22T16:02:48.097Z,14.70
2022-11-22T16:23:15.441Z,14.50
2022-11-22T16:26:05.499Z,14.56
2022-11-22T16:28:46.166Z,14.74
2022-11-22T16:40:10.952Z,14.73
2022-11-22T16:43:00.071Z,14.88
2022-11-22T16:45:31.026Z,14.93
2022-11-22T16:48:30.381Z,14.93
2022-11-22T16:51:08.081Z,14.89
2022-11-22T16:56:55.155Z,14.88
2022-11-22T17:00:23.642Z,14.79
2022-11-22T17:03:02.441Z,14.75
2022-11-22T17:05:36.221Z,14.69
2022-11-22T17:08:17.416Z,14.65
2022-11-22T17:13:39.869Z,14.58
2022-11-22T17:16:26.235Z,14.53
2022-11-22T17:18:57.580Z,14.55
2022-11-22T17:22:01.500Z,14.58
2022-11-22T17:24:40.665Z,14.57
2022-11-22T17:27:14.622Z,14.62
2022-11-22T17:29:54.151Z,14.63
2022-11-22T17:32:27.209Z,14.72
2022-11-22T17:38:28.615Z,14.78
2022-11-22T17:44:58.034Z,14.82
2022-11-22T18:01:16.705Z,14.99
2022-11-22T18:08:31.431Z,14.99
2022-11-22T18:11:47.610Z,15.00
2022-11-22T18:14:35.163Z,14.93
2022-11-22T18:17:26.407Z,14.99
2022-11-22T19:27:51.083Z,14.61
2022-11-22T20:09:27.753Z,14.54
2022-11-22T20:36:50.718Z,14.55
2022-11-22T21:20:16.682Z,14.01
2022-11-22T21:23:44.749Z,14.01
2022-11-22T21:30:57.019Z,14.08
2022-11-22T21:45:18.881Z,14.04
2022-11-22T21:49:22.419Z,14.03
2022-11-22T22:11:02.562Z,13.69
2022-11-22T22:21:40.428Z,13.43
2022-11-22T22:55:41.777Z,13.18
2022-11-22T22:58:25.372Z,13.14
2022-11-22T23:01:08.931Z,13.08
2022-11-22T23:03:59.119Z,13.03
2022-11-22T23:06:39.090Z,12.94
2022-11-22T23:09:09.418Z,12.86
2022-11-22T23:12:10.327Z,12.75
2022-11-22T23:14:41.760Z,12.64
2022-11-22T23:17:17.205Z,12.63
2022-11-22T23:19:49.082Z,12.60
2022-11-22T23:26:43.281Z,12.56
2022-11-22T23:29:19.969Z,12.49
2022-11-22T23:35:21.190Z,12.52
2022-11-22T23:38:16.379Z,12.57
2022-11-22T23:41:28.376Z,12.57
2022-11-22T23:44:12.287Z,12.58
2022-11-22T23:47:03.523Z,12.53
2022-11-22T23:50:31.728Z,12.55
2022-11-22T23:53:13.433Z,12.56
2022-11-22T23:55:52.728Z,12.51
2022-11-22T23:58:27.736Z,12.48
